sensor_id;sensor_type;location;lat;lon;timestamp;pressure;altitude;pressure_sealevel;temperature;humidity
30708;BME280;17458;48.958;8.284;2024-03-02T00:01:23;99188.19;;;5.29;77.41
30708;BME280;17458;48.958;8.284;2024-03-02T00:04:07;99187.78;;;5.22;78.24
30708;BME280;17458;48.958;8.284;2024-03-02T00:06:52;99189.09;;;5.30;77.99
30708;BME280;17458;48.958;8.284;2024-03-02T00:09:38;99181.50;;;5.36;77.91
30708;BME280;17458;48.958;8.284;2024-03-02T00:12:23;99185.88;;;5.35;78.15
30708;BME280;17458;48.958;8.284;2024-03-02T00:18:30;99181.56;;;5.54;76.98
30708;BME280;17458;48.958;8.284;2024-03-02T00:21:14;99182.97;;;5.47;76.71
30708;BME280;17458;48.958;8.284;2024-03-02T00:24:21;99188.09;;;5.44;76.30
30708;BME280;17458;48.958;8.284;2024-03-02T00:27:07;99176.69;;;5.27;76.69
30708;BME280;17458;48.958;8.284;2024-03-02T00:29:51;99184.34;;;5.23;76.70
30708;BME280;17458;48.958;8.284;2024-03-02T00:32:35;99186.06;;;5.22;76.79
30708;BME280;17458;48.958;8.284;2024-03-02T00:35:20;99178.16;;;5.22;77.29
30708;BME280;17458;48.958;8.284;2024-03-02T00:38:06;99181.59;;;5.04;76.93
30708;BME280;17458;48.958;8.284;2024-03-02T00:40:51;99189.88;;;5.11;77.07
30708;BME280;17458;48.958;8.284;2024-03-02T00:46:20;99202.63;;;4.87;76.93
30708;BME280;17458;48.958;8.284;2024-03-02T00:51:54;99205.56;;;5.10;77.17
30708;BME280;17458;48.958;8.284;2024-03-02T00:54:38;99210.50;;;4.71;80.14
30708;BME280;17458;48.958;8.284;2024-03-02T00:57:23;99210.28;;;4.83;79.66
30708;BME280;17458;48.958;8.284;2024-03-02T01:00:09;99212.56;;;4.93;80.01
30708;BME280;17458;48.958;8.284;2024-03-02T01:02:55;99202.81;;;4.90;79.72
30708;BME280;17458;48.958;8.284;2024-03-02T01:05:43;99198.44;;;4.91;79.52
30708;BME280;17458;48.958;8.284;2024-03-02T01:08:27;99190.56;;;4.91;79.86
30708;BME280;17458;48.958;8.284;2024-03-02T01:11:11;99201.38;;;4.81;78.99
30708;BME280;17458;48.958;8.284;2024-03-02T01:13:55;99195.28;;;4.66;79.50
30708;BME280;17458;48.958;8.284;2024-03-02T01:16:39;99199.56;;;4.80;78.62
30708;BME280;17458;48.958;8.284;2024-03-02T01:19:23;99192.50;;;4.95;78.23
30708;BME280;17458;48.958;8.284;2024-03-02T01:22:07;99188.41;;;4.84;78.10
30708;BME280;17458;48.958;8.284;2024-03-02T01:24:54;99187.25;;;4.79;78.03
30708;BME280;17458;48.958;8.284;2024-03-02T01:27:38;99193.50;;;4.64;77.69
30708;BME280;17458;48.958;8.284;2024-03-02T01:30:22;99191.59;;;4.78;77.85
30708;BME280;17458;48.958;8.284;2024-03-02T01:33:06;99197.94;;;4.82;76.92
30708;BME280;17458;48.958;8.284;2024-03-02T01:35:50;99191.69;;;4.63;76.63
30708;BME280;17458;48.958;8.284;2024-03-02T01:38:34;99193.34;;;4.61;77.34
30708;BME280;17458;48.958;8.284;2024-03-02T01:41:18;99183.47;;;4.57;77.31
30708;BME280;17458;48.958;8.284;2024-03-02T01:44:02;99180.03;;;4.58;77.43
30708;BME280;17458;48.958;8.284;2024-03-02T01:46:47;99188.28;;;4.50;77.10
30708;BME280;17458;48.958;8.284;2024-03-02T01:49:31;99179.44;;;4.64;77.06
30708;BME280;17458;48.958;8.284;2024-03-02T01:52:18;99184.28;;;4.56;76.70
30708;BME280;17458;48.958;8.284;2024-03-02T01:55:02;99189.19;;;4.50;76.23
30708;BME280;17458;48.958;8.284;2024-03-02T01:57:48;99185.63;;;4.48;76.53
30708;BME280;17458;48.958;8.284;2024-03-02T02:00:32;99173.56;;;4.37;76.62
30708;BME280;17458;48.958;8.284;2024-03-02T02:03:16;99173.03;;;4.43;76.62
30708;BME280;17458;48.958;8.284;2024-03-02T02:06:01;99173.44;;;4.34;76.63
30708;BME280;17458;48.958;8.284;2024-03-02T02:08:45;99169.22;;;4.38;76.62
30708;BME280;17458;48.958;8.284;2024-03-02T02:11:31;99160.53;;;4.39;76.48
30708;BME280;17458;48.958;8.284;2024-03-02T02:14:15;99156.81;;;4.35;76.57
30708;BME280;17458;48.958;8.284;2024-03-02T02:16:59;99160.69;;;4.42;76.54
30708;BME280;17458;48.958;8.284;2024-03-02T02:19:43;99164.94;;;4.23;76.38
30708;BME280;17458;48.958;8.284;2024-03-02T02:22:27;99151.66;;;4.20;76.17
30708;BME280;17458;48.958;8.284;2024-03-02T02:25:12;99161.66;;;4.27;76.70
30708;BME280;17458;48.958;8.284;2024-03-02T02:27:56;99163.78;;;4.18;76.03
30708;BME280;17458;48.958;8.284;2024-03-02T02:30:40;99161.91;;;4.16;75.77
30708;BME280;17458;48.958;8.284;2024-03-02T02:33:24;99159.72;;;4.09;76.03
30708;BME280;17458;48.958;8.284;2024-03-02T02:36:08;99158.78;;;4.07;76.36
30708;BME280;17458;48.958;8.284;2024-03-02T02:38:55;99146.63;;;3.94;78.58
30708;BME280;17458;48.958;8.284;2024-03-02T02:41:39;99150.03;;;4.08;78.82
30708;BME280;17458;48.958;8.284;2024-03-02T02:44:23;99143.56;;;4.01;78.96
30708;BME280;17458;48.958;8.284;2024-03-02T02:47:08;99141.25;;;4.07;79.08
30708;BME280;17458;48.958;8.284;2024-03-02T02:49:51;99142.34;;;4.11;79.00
30708;BME280;17458;48.958;8.284;2024-03-02T02:52:37;99133.09;;;4.17;78.54
30708;BME280;17458;48.958;8.284;2024-03-02T02:55:23;99140.88;;;4.16;78.35
30708;BME280;17458;48.958;8.284;2024-03-02T02:58:07;99127.56;;;4.13;78.15
30708;BME280;17458;48.958;8.284;2024-03-02T03:00:51;99137.75;;;4.07;78.24
30708;BME280;17458;48.958;8.284;2024-03-02T03:03:35;99129.13;;;4.09;78.46
30708;BME280;17458;48.958;8.284;2024-03-02T03:06:19;99120.50;;;4.12;77.64
30708;BME280;17458;48.958;8.284;2024-03-02T03:09:03;99115.25;;;4.12;77.72
30708;BME280;17458;48.958;8.284;2024-03-02T03:11:47;99117.88;;;4.12;78.04
30708;BME280;17458;48.958;8.284;2024-03-02T03:14:31;99112.53;;;4.10;77.24
30708;BME280;17458;48.958;8.284;2024-03-02T03:17:15;99108.38;;;4.14;77.10
30708;BME280;17458;48.958;8.284;2024-03-02T03:19:59;99121.09;;;4.06;77.04
30708;BME280;17458;48.958;8.284;2024-03-02T03:22:44;99113.84;;;4.02;76.72
30708;BME280;17458;48.958;8.284;2024-03-02T03:25:28;99115.78;;;3.90;77.19
30708;BME280;17458;48.958;8.284;2024-03-02T03:28:12;99117.34;;;3.86;76.97
30708;BME280;17458;48.958;8.284;2024-03-02T03:30:56;99120.16;;;3.89;77.07
30708;BME280;17458;48.958;8.284;2024-03-02T03:33:40;99119.56;;;3.79;76.88
30708;BME280;17458;48.958;8.284;2024-03-02T03:36:24;99115.25;;;3.81;76.56
30708;BME280;17458;48.958;8.284;2024-03-02T03:39:08;99113.84;;;3.71;77.36
30708;BME280;17458;48.958;8.284;2024-03-02T03:41:51;99118.38;;;3.74;76.88
30708;BME280;17458;48.958;8.284;2024-03-02T03:44:35;99114.44;;;3.82;77.74
30708;BME280;17458;48.958;8.284;2024-03-02T03:47:19;99109.91;;;3.79;77.90
30708;BME280;17458;48.958;8.284;2024-03-02T03:50:05;99105.16;;;3.72;78.56
30708;BME280;17458;48.958;8.284;2024-03-02T03:52:51;99113.44;;;3.64;79.24
30708;BME280;17458;48.958;8.284;2024-03-02T03:55:35;99123.38;;;3.54;79.55
30708;BME280;17458;48.958;8.284;2024-03-02T03:58:18;99121.94;;;3.60;80.07
30708;BME280;17458;48.958;8.284;2024-03-02T04:01:04;99122.13;;;3.63;79.31
30708;BME280;17458;48.958;8.284;2024-03-02T04:03:48;99110.31;;;3.71;79.37
30708;BME280;17458;48.958;8.284;2024-03-02T04:06:32;99120.00;;;3.72;78.99
30708;BME280;17458;48.958;8.284;2024-03-02T04:09:16;99111.50;;;3.76;78.91
30708;BME280;17458;48.958;8.284;2024-03-02T04:12:02;99117.47;;;3.73;78.36
30708;BME280;17458;48.958;8.284;2024-03-02T04:14:46;99117.19;;;3.69;78.05
30708;BME280;17458;48.958;8.284;2024-03-02T04:17:31;99129.41;;;3.68;77.61
30708;BME280;17458;48.958;8.284;2024-03-02T04:20:16;99129.81;;;3.60;77.17
30708;BME280;17458;48.958;8.284;2024-03-02T04:23:00;99135.59;;;3.54;77.46
30708;BME280;17458;48.958;8.284;2024-03-02T04:25:44;99139.03;;;3.53;77.72
30708;BME280;17458;48.958;8.284;2024-03-02T04:28:28;99139.31;;;3.58;77.46
30708;BME280;17458;48.958;8.284;2024-03-02T04:31:12;99138.13;;;3.52;77.29
30708;BME280;17458;48.958;8.284;2024-03-02T04:33:56;99149.38;;;3.50;77.13
30708;BME280;17458;48.958;8.284;2024-03-02T04:36:40;99151.44;;;3.26;77.95
30708;BME280;17458;48.958;8.284;2024-03-02T04:39:24;99150.91;;;3.32;77.20
30708;BME280;17458;48.958;8.284;2024-03-02T04:42:09;99152.03;;;3.35;77.25
30708;BME280;17458;48.958;8.284;2024-03-02T04:44:52;99153.53;;;3.32;77.39
30708;BME280;17458;48.958;8.284;2024-03-02T04:47:37;99153.44;;;3.30;77.15
30708;BME280;17458;48.958;8.284;2024-03-02T04:50:21;99159.22;;;3.25;76.84
30708;BME280;17458;48.958;8.284;2024-03-02T04:53:05;99163.50;;;3.23;76.89
30708;BME280;17458;48.958;8.284;2024-03-02T04:55:49;99160.13;;;3.25;76.50
30708;BME280;17458;48.958;8.284;2024-03-02T04:58:56;99164.56;;;3.41;76.27
30708;BME280;17458;48.958;8.284;2024-03-02T05:01:40;99160.50;;;3.31;75.75
30708;BME280;17458;48.958;8.284;2024-03-02T05:04:24;99162.03;;;3.28;76.25
30708;BME280;17458;48.958;8.284;2024-03-02T05:07:08;99161.75;;;3.23;76.22
30708;BME280;17458;48.958;8.284;2024-03-02T05:09:52;99168.81;;;3.24;76.17
30708;BME280;17458;48.958;8.284;2024-03-02T05:12:36;99160.03;;;3.24;76.29
30708;BME280;17458;48.958;8.284;2024-03-02T05:15:26;99161.03;;;3.26;76.71
30708;BME280;17458;48.958;8.284;2024-03-02T05:18:10;99163.75;;;3.27;76.69
30708;BME280;17458;48.958;8.284;2024-03-02T05:20:53;99169.91;;;3.28;76.75
30708;BME280;17458;48.958;8.284;2024-03-02T05:23:38;99172.72;;;3.31;77.08
30708;BME280;17458;48.958;8.284;2024-03-02T05:26:22;99175.16;;;3.28;76.51
30708;BME280;17458;48.958;8.284;2024-03-02T05:29:06;99169.19;;;3.15;76.67
30708;BME280;17458;48.958;8.284;2024-03-02T05:31:51;99171.38;;;3.23;76.66
30708;BME280;17458;48.958;8.284;2024-03-02T05:34:35;99167.75;;;3.20;76.59
30708;BME280;17458;48.958;8.284;2024-03-02T05:37:19;99175.44;;;3.32;76.19
30708;BME280;17458;48.958;8.284;2024-03-02T05:40:04;99175.44;;;3.32;75.69
30708;BME280;17458;48.958;8.284;2024-03-02T05:42:49;99192.25;;;3.06;76.36
30708;BME280;17458;48.958;8.284;2024-03-02T05:45:33;99183.56;;;3.07;76.78
30708;BME280;17458;48.958;8.284;2024-03-02T05:48:17;99178.94;;;3.03;76.65
30708;BME280;17458;48.958;8.284;2024-03-02T05:51:01;99171.38;;;3.08;76.60
30708;BME280;17458;48.958;8.284;2024-03-02T05:53:45;99167.66;;;3.04;76.77
30708;BME280;17458;48.958;8.284;2024-03-02T05:56:29;99162.13;;;3.14;76.75
30708;BME280;17458;48.958;8.284;2024-03-02T05:59:13;99167.63;;;2.90;76.79
30708;BME280;17458;48.958;8.284;2024-03-02T06:01:58;99172.38;;;2.82;77.14
30708;BME280;17458;48.958;8.284;2024-03-02T06:04:42;99169.53;;;2.92;76.79
30708;BME280;17458;48.958;8.284;2024-03-02T06:07:25;99181.38;;;3.00;76.78
30708;BME280;17458;48.958;8.284;2024-03-02T06:10:10;99176.44;;;3.05;76.13
30708;BME280;17458;48.958;8.284;2024-03-02T06:12:54;99182.19;;;2.99;75.96
30708;BME280;17458;48.958;8.284;2024-03-02T06:15:38;99189.44;;;3.03;75.97
30708;BME280;17458;48.958;8.284;2024-03-02T06:18:22;99187.00;;;3.06;75.87
30708;BME280;17458;48.958;8.284;2024-03-02T06:21:06;99177.31;;;3.05;75.76
30708;BME280;17458;48.958;8.284;2024-03-02T06:23:50;99170.38;;;3.06;75.96
30708;BME280;17458;48.958;8.284;2024-03-02T06:26:35;99175.53;;;3.04;76.21
30708;BME280;17458;48.958;8.284;2024-03-02T06:29:19;99175.97;;;3.12;76.02
30708;BME280;17458;48.958;8.284;2024-03-02T06:32:03;99173.91;;;3.06;76.38
30708;BME280;17458;48.958;8.284;2024-03-02T06:34:47;99178.97;;;3.18;76.29
30708;BME280;17458;48.958;8.284;2024-03-02T06:37:31;99185.00;;;3.02;76.99
30708;BME280;17458;48.958;8.284;2024-03-02T06:40:15;99188.38;;;3.14;76.54
30708;BME280;17458;48.958;8.284;2024-03-02T06:42:59;99181.38;;;3.00;77.01
30708;BME280;17458;48.958;8.284;2024-03-02T06:45:43;99189.47;;;3.18;77.16
30708;BME280;17458;48.958;8.284;2024-03-02T06:48:27;99178.16;;;3.34;76.70
30708;BME280;17458;48.958;8.284;2024-03-02T06:51:12;99177.50;;;3.23;77.29
30708;BME280;17458;48.958;8.284;2024-03-02T06:53:56;99173.34;;;3.41;76.95
30708;BME280;17458;48.958;8.284;2024-03-02T06:56:40;99186.94;;;3.49;76.53
30708;BME280;17458;48.958;8.284;2024-03-02T06:59:24;99180.78;;;3.63;76.04
30708;BME280;17458;48.958;8.284;2024-03-02T07:02:08;99188.16;;;3.70;75.42
30708;BME280;17458;48.958;8.284;2024-03-02T07:04:53;99192.16;;;3.78;74.62
30708;BME280;17458;48.958;8.284;2024-03-02T07:07:37;99193.59;;;3.88;74.56
30708;BME280;17458;48.958;8.284;2024-03-02T07:10:22;99193.38;;;4.00;74.71
30708;BME280;17458;48.958;8.284;2024-03-02T07:13:06;99192.03;;;4.22;74.19
30708;BME280;17458;48.958;8.284;2024-03-02T07:15:50;99198.31;;;4.41;73.84
30708;BME280;17458;48.958;8.284;2024-03-02T07:18:46;99201.53;;;4.51;73.62
30708;BME280;17458;48.958;8.284;2024-03-02T07:21:35;99194.81;;;4.56;73.55
30708;BME280;17458;48.958;8.284;2024-03-02T07:24:19;99197.03;;;4.81;73.77
30708;BME280;17458;48.958;8.284;2024-03-02T07:27:03;99195.94;;;5.10;73.34
30708;BME280;17458;48.958;8.284;2024-03-02T07:29:47;99197.88;;;5.47;73.24
30708;BME280;17458;48.958;8.284;2024-03-02T07:32:31;99198.00;;;5.84;72.44
30708;BME280;17458;48.958;8.284;2024-03-02T07:35:15;99198.88;;;6.00;71.58
30708;BME280;17458;48.958;8.284;2024-03-02T07:37:59;99192.56;;;6.34;71.22
30708;BME280;17458;48.958;8.284;2024-03-02T07:40:43;99189.88;;;6.69;70.58
30708;BME280;17458;48.958;8.284;2024-03-02T07:43:28;99189.81;;;6.87;70.21
30708;BME280;17458;48.958;8.284;2024-03-02T07:46:11;99195.00;;;7.05;68.72
30708;BME280;17458;48.958;8.284;2024-03-02T07:48:56;99186.09;;;7.22;69.10
30708;BME280;17458;48.958;8.284;2024-03-02T07:51:40;99196.91;;;7.47;68.20
30708;BME280;17458;48.958;8.284;2024-03-02T07:54:24;99194.16;;;7.65;67.72
30708;BME280;17458;48.958;8.284;2024-03-02T07:57:08;99200.31;;;7.85;67.52
30708;BME280;17458;48.958;8.284;2024-03-02T07:59:52;99192.69;;;7.72;67.27
30708;BME280;17458;48.958;8.284;2024-03-02T08:02:36;99199.56;;;7.89;67.66
30708;BME280;17458;48.958;8.284;2024-03-02T08:05:20;99199.38;;;8.05;67.29
30708;BME280;17458;48.958;8.284;2024-03-02T08:08:05;99192.34;;;8.28;66.73
30708;BME280;17458;48.958;8.284;2024-03-02T08:10:49;99200.84;;;8.40;67.29
30708;BME280;17458;48.958;8.284;2024-03-02T08:13:33;99204.09;;;8.56;67.33
30708;BME280;17458;48.958;8.284;2024-03-02T08:16:17;99207.28;;;8.69;67.04
30708;BME280;17458;48.958;8.284;2024-03-02T08:19:05;99211.28;;;8.60;66.94
30708;BME280;17458;48.958;8.284;2024-03-02T08:21:49;99206.66;;;8.76;67.02
30708;BME280;17458;48.958;8.284;2024-03-02T08:24:32;99193.88;;;8.88;66.53
30708;BME280;17458;48.958;8.284;2024-03-02T08:27:17;99200.72;;;8.82;66.95
30708;BME280;17458;48.958;8.284;2024-03-02T08:30:01;99198.31;;;8.66;67.47
30708;BME280;17458;48.958;8.284;2024-03-02T08:32:47;99184.66;;;8.55;67.30
30708;BME280;17458;48.958;8.284;2024-03-02T08:35:31;99192.47;;;11.70;78.29
30708;BME280;17458;48.958;8.284;2024-03-02T08:38:19;99189.00;;;11.41;65.33
30708;BME280;17458;48.958;8.284;2024-03-02T08:41:04;99188.78;;;12.32;64.12
30708;BME280;17458;48.958;8.284;2024-03-02T08:43:48;99200.53;;;13.62;58.36
30708;BME280;17458;48.958;8.284;2024-03-02T08:46:32;99188.88;;;13.57;53.78
30708;BME280;17458;48.958;8.284;2024-03-02T08:49:16;99196.44;;;12.19;52.82
30708;BME280;17458;48.958;8.284;2024-03-02T08:52:00;99185.41;;;12.39;57.24
30708;BME280;17458;48.958;8.284;2024-03-02T08:54:44;99189.16;;;12.87;55.87
30708;BME280;17458;48.958;8.284;2024-03-02T08:57:28;99189.00;;;12.05;53.27
30708;BME280;17458;48.958;8.284;2024-03-02T09:00:12;99179.03;;;12.33;53.74
30708;BME280;17458;48.958;8.284;2024-03-02T09:02:56;99184.09;;;12.58;55.54
30708;BME280;17458;48.958;8.284;2024-03-02T09:05:40;99183.63;;;12.40;51.79
30708;BME280;17458;48.958;8.284;2024-03-02T09:08:24;99199.44;;;11.65;52.44
30708;BME280;17458;48.958;8.284;2024-03-02T09:11:09;99191.97;;;11.83;52.97
30708;BME280;17458;48.958;8.284;2024-03-02T09:13:53;99181.75;;;11.04;54.55
30708;BME280;17458;48.958;8.284;2024-03-02T09:16:38;99184.75;;;10.86;55.21
30708;BME280;17458;48.958;8.284;2024-03-02T09:19:22;99192.19;;;10.98;55.66
30708;BME280;17458;48.958;8.284;2024-03-02T09:22:06;99184.13;;;10.95;56.30
30708;BME280;17458;48.958;8.284;2024-03-02T09:24:50;99186.97;;;11.01;56.47
30708;BME280;17458;48.958;8.284;2024-03-02T09:27:38;99187.88;;;11.01;57.18
30708;BME280;17458;48.958;8.284;2024-03-02T09:30:22;99193.88;;;10.94;56.98
30708;BME280;17458;48.958;8.284;2024-03-02T09:33:06;99181.84;;;10.77;58.07
30708;BME280;17458;48.958;8.284;2024-03-02T09:35:50;99184.47;;;11.06;58.78
30708;BME280;17458;48.958;8.284;2024-03-02T09:38:34;99174.28;;;11.21;57.76
30708;BME280;17458;48.958;8.284;2024-03-02T09:41:18;99173.53;;;11.26;57.91
30708;BME280;17458;48.958;8.284;2024-03-02T09:44:04;99174.91;;;11.44;57.51
30708;BME280;17458;48.958;8.284;2024-03-02T09:46:49;99173.03;;;11.72;56.16
30708;BME280;17458;48.958;8.284;2024-03-02T09:49:33;99176.13;;;11.88;56.50
30708;BME280;17458;48.958;8.284;2024-03-02T09:52:17;99174.78;;;12.03;57.11
30708;BME280;17458;48.958;8.284;2024-03-02T09:55:01;99171.19;;;12.39;56.78
30708;BME280;17458;48.958;8.284;2024-03-02T09:57:45;99168.44;;;12.34;56.14
30708;BME280;17458;48.958;8.284;2024-03-02T10:00:29;99169.63;;;12.11;56.82
30708;BME280;17458;48.958;8.284;2024-03-02T10:03:13;99166.97;;;12.11;56.71
30708;BME280;17458;48.958;8.284;2024-03-02T10:06:20;99171.63;;;12.20;55.36
30708;BME280;17458;48.958;8.284;2024-03-02T10:09:04;99160.44;;;12.34;54.35
30708;BME280;17458;48.958;8.284;2024-03-02T10:11:49;99159.13;;;12.55;55.49
30708;BME280;17458;48.958;8.284;2024-03-02T10:14:33;99164.63;;;12.61;55.79
30708;BME280;17458;48.958;8.284;2024-03-02T10:17:17;99166.66;;;12.72;55.82
30708;BME280;17458;48.958;8.284;2024-03-02T10:20:21;99165.94;;;12.81;53.51
30708;BME280;17458;48.958;8.284;2024-03-02T10:23:15;99158.75;;;13.16;53.98
30708;BME280;17458;48.958;8.284;2024-03-02T10:25:59;99151.94;;;13.32;53.46
30708;BME280;17458;48.958;8.284;2024-03-02T10:28:47;99152.78;;;13.29;52.61
30708;BME280;17458;48.958;8.284;2024-03-02T10:31:46;99151.00;;;13.28;52.77
30708;BME280;17458;48.958;8.284;2024-03-02T10:34:30;99143.84;;;13.27;52.40
30708;BME280;17458;48.958;8.284;2024-03-02T10:37:15;99141.34;;;13.36;53.49
30708;BME280;17458;48.958;8.284;2024-03-02T10:40:04;99132.75;;;13.51;54.81
30708;BME280;17458;48.958;8.284;2024-03-02T10:42:52;99133.19;;;13.74;53.91
30708;BME280;17458;48.958;8.284;2024-03-02T10:45:36;99127.91;;;13.78;53.14
30708;BME280;17458;48.958;8.284;2024-03-02T10:48:20;99121.13;;;13.47;52.60
30708;BME280;17458;48.958;8.284;2024-03-02T10:51:05;99122.78;;;13.91;51.99
30708;BME280;17458;48.958;8.284;2024-03-02T10:53:49;99107.91;;;14.05;51.25
30708;BME280;17458;48.958;8.284;2024-03-02T10:56:38;99106.75;;;14.42;50.01
30708;BME280;17458;48.958;8.284;2024-03-02T10:59:33;99111.44;;;14.61;49.08
30708;BME280;17458;48.958;8.284;2024-03-02T11:02:20;99109.47;;;14.48;48.39
30708;BME280;17458;48.958;8.284;2024-03-02T11:05:06;99111.06;;;14.99;48.01
30708;BME280;17458;48.958;8.284;2024-03-02T11:08:00;99109.16;;;14.87;46.95
30708;BME280;17458;48.958;8.284;2024-03-02T11:10:55;99113.69;;;14.94;46.80
30708;BME280;17458;48.958;8.284;2024-03-02T11:13:42;99113.28;;;15.36;46.69
30708;BME280;17458;48.958;8.284;2024-03-02T11:16:36;99106.22;;;15.41;45.15
30708;BME280;17458;48.958;8.284;2024-03-02T11:19:21;99101.03;;;15.55;45.26
30708;BME280;17458;48.958;8.284;2024-03-02T11:22:05;99099.06;;;15.39;44.96
30708;BME280;17458;48.958;8.284;2024-03-02T11:24:50;99086.78;;;15.56;45.40
30708;BME280;17458;48.958;8.284;2024-03-02T11:33:30;99084.13;;;15.56;44.79
30708;BME280;17458;48.958;8.284;2024-03-02T11:36:15;99073.63;;;15.80;45.49
30708;BME280;17458;48.958;8.284;2024-03-02T11:38:59;99075.41;;;15.81;45.08
30708;BME280;17458;48.958;8.284;2024-03-02T11:41:45;99067.16;;;15.55;45.95
30708;BME280;17458;48.958;8.284;2024-03-02T11:44:29;99061.13;;;15.79;44.81
30708;BME280;17458;48.958;8.284;2024-03-02T11:47:17;99059.38;;;15.87;45.01
30708;BME280;17458;48.958;8.284;2024-03-02T11:50:04;99065.59;;;15.80;44.40
30708;BME280;17458;48.958;8.284;2024-03-02T11:52:51;99057.75;;;16.00;44.65
30708;BME280;17458;48.958;8.284;2024-03-02T11:55:36;99057.06;;;16.35;43.47
30708;BME280;17458;48.958;8.284;2024-03-02T11:58:21;99045.38;;;16.22;42.80
30708;BME280;17458;48.958;8.284;2024-03-02T12:01:07;99046.41;;;16.47;43.89
30708;BME280;17458;48.958;8.284;2024-03-02T12:03:52;99042.09;;;16.65;43.04
30708;BME280;17458;48.958;8.284;2024-03-02T12:06:39;99039.22;;;16.35;43.34
30708;BME280;17458;48.958;8.284;2024-03-02T12:09:22;99038.34;;;16.41;43.29
30708;BME280;17458;48.958;8.284;2024-03-02T12:12:08;99037.44;;;16.39;42.87
30708;BME280;17458;48.958;8.284;2024-03-02T12:14:53;99032.19;;;16.61;43.51
30708;BME280;17458;48.958;8.284;2024-03-02T12:17:39;99028.41;;;16.23;44.18
30708;BME280;17458;48.958;8.284;2024-03-02T12:20:23;99025.69;;;16.15;44.17
30708;BME280;17458;48.958;8.284;2024-03-02T12:23:08;99033.91;;;16.41;44.41
30708;BME280;17458;48.958;8.284;2024-03-02T12:25:52;99022.28;;;16.39;43.29
30708;BME280;17458;48.958;8.284;2024-03-02T12:28:36;99015.28;;;16.72;43.26
30708;BME280;17458;48.958;8.284;2024-03-02T12:31:20;99017.19;;;17.03;42.16
30708;BME280;17458;48.958;8.284;2024-03-02T12:34:05;99012.72;;;16.94;41.99
30708;BME280;17458;48.958;8.284;2024-03-02T12:36:49;99017.19;;;16.94;42.44
30708;BME280;17458;48.958;8.284;2024-03-02T12:39:36;99012.63;;;16.70;42.60
30708;BME280;17458;48.958;8.284;2024-03-02T12:42:20;99005.53;;;16.87;42.33
30708;BME280;17458;48.958;8.284;2024-03-02T12:45:05;98995.72;;;16.91;42.04
30708;BME280;17458;48.958;8.284;2024-03-02T12:47:49;98992.06;;;16.72;42.60
30708;BME280;17458;48.958;8.284;2024-03-02T12:50:34;98995.63;;;16.67;42.24
30708;BME280;17458;48.958;8.284;2024-03-02T12:53:18;98986.63;;;16.54;42.71
30708;BME280;17458;48.958;8.284;2024-03-02T12:56:02;98984.84;;;16.56;43.09
30708;BME280;17458;48.958;8.284;2024-03-02T12:58:48;98984.84;;;16.56;42.83
30708;BME280;17458;48.958;8.284;2024-03-02T13:01:36;98979.47;;;16.57;42.51
30708;BME280;17458;48.958;8.284;2024-03-02T13:04:28;98975.78;;;16.28;43.15
30708;BME280;17458;48.958;8.284;2024-03-02T13:07:12;98975.88;;;16.51;42.62
30708;BME280;17458;48.958;8.284;2024-03-02T13:09:57;98974.94;;;16.41;43.69
30708;BME280;17458;48.958;8.284;2024-03-02T13:12:42;98974.28;;;17.06;42.38
30708;BME280;17458;48.958;8.284;2024-03-02T13:15:27;98972.53;;;17.20;42.61
30708;BME280;17458;48.958;8.284;2024-03-02T13:18:11;98980.56;;;17.28;42.02
30708;BME280;17458;48.958;8.284;2024-03-02T13:20:55;98969.78;;;16.81;42.08
30708;BME280;17458;48.958;8.284;2024-03-02T13:23:39;98966.06;;;16.59;42.48
30708;BME280;17458;48.958;8.284;2024-03-02T13:26:23;98963.53;;;16.82;42.17
30708;BME280;17458;48.958;8.284;2024-03-02T13:29:07;98960.88;;;17.15;41.94
30708;BME280;17458;48.958;8.284;2024-03-02T13:31:52;98952.78;;;16.88;41.88
30708;BME280;17458;48.958;8.284;2024-03-02T13:34:36;98952.84;;;17.14;42.33
30708;BME280;17458;48.958;8.284;2024-03-02T13:37:23;98949.28;;;17.21;nan
30708;BME280;17458;48.958;8.284;2024-03-02T13:40:07;98952.78;;;16.80;42.56
30708;BME280;17458;48.958;8.284;2024-03-02T13:42:56;98958.00;;;16.51;42.60
30708;BME280;17458;48.958;8.284;2024-03-02T13:45:40;98958.13;;;16.74;42.90
30708;BME280;17458;48.958;8.284;2024-03-02T13:48:24;98951.84;;;16.68;42.15
30708;BME280;17458;48.958;8.284;2024-03-02T13:51:09;98950.00;;;16.54;42.79
30708;BME280;17458;48.958;8.284;2024-03-02T13:53:53;98941.94;;;16.57;42.69
30708;BME280;17458;48.958;8.284;2024-03-02T13:56:37;98945.66;;;16.90;42.53
30708;BME280;17458;48.958;8.284;2024-03-02T13:59:23;98944.75;;;16.86;42.72
30708;BME280;17458;48.958;8.284;2024-03-02T14:02:08;98936.72;;;16.89;42.83
30708;BME280;17458;48.958;8.284;2024-03-02T14:04:52;98929.56;;;16.91;42.56
30708;BME280;17458;48.958;8.284;2024-03-02T14:07:37;98929.50;;;16.72;41.93
30708;BME280;17458;48.958;8.284;2024-03-02T14:10:22;98926.88;;;16.88;42.64
30708;BME280;17458;48.958;8.284;2024-03-02T14:13:06;98929.44;;;16.52;43.70
30708;BME280;17458;48.958;8.284;2024-03-02T14:15:51;98924.97;;;16.52;43.10
30708;BME280;17458;48.958;8.284;2024-03-02T14:18:34;98922.25;;;16.46;43.23
30708;BME280;17458;48.958;8.284;2024-03-02T14:21:19;98920.59;;;16.67;43.14
30708;BME280;17458;48.958;8.284;2024-03-02T14:24:04;98914.34;;;16.77;43.09
30708;BME280;17458;48.958;8.284;2024-03-02T14:26:48;98914.31;;;16.66;43.09
30708;BME280;17458;48.958;8.284;2024-03-02T14:29:32;98909.00;;;16.80;43.27
30708;BME280;17458;48.958;8.284;2024-03-02T14:32:20;98913.47;;;16.79;42.81
30708;BME280;17458;48.958;8.284;2024-03-02T14:35:05;98911.66;;;16.86;43.33
30708;BME280;17458;48.958;8.284;2024-03-02T14:37:48;98904.53;;;16.88;43.44
30708;BME280;17458;48.958;8.284;2024-03-02T14:40:32;98896.53;;;16.97;43.33
30708;BME280;17458;48.958;8.284;2024-03-02T14:43:17;98889.34;;;16.93;43.52
30708;BME280;17458;48.958;8.284;2024-03-02T14:46:01;98890.13;;;16.58;43.98
30708;BME280;17458;48.958;8.284;2024-03-02T14:48:45;98892.91;;;16.83;43.87
30708;BME280;17458;48.958;8.284;2024-03-02T14:51:29;98887.59;;;17.12;43.70
30708;BME280;17458;48.958;8.284;2024-03-02T14:54:14;98883.09;;;17.00;44.21
30708;BME280;17458;48.958;8.284;2024-03-02T14:56:58;98880.44;;;16.97;44.37